createdAt,value
2022-07-26T00:02:01.457Z,47.98
2022-07-26T00:05:05.835Z,47.85
2022-07-26T00:08:11.786Z,47.76
2022-07-26T00:11:15.732Z,47.83
2022-07-26T00:14:18.565Z,47.73
2022-07-26T00:17:21.465Z,47.80
2022-07-26T00:20:24.217Z,47.87
2022-07-26T00:23:30.761Z,47.86
2022-07-26T00:26:33.929Z,47.94
2022-07-26T00:29:37.196Z,47.91
2022-07-26T00:32:39.905Z,48.19
2022-07-26T00:35:42.892Z,48.35
2022-07-26T00:38:45.743Z,48.56
2022-07-26T00:41:48.694Z,48.40
2022-07-26T00:44:51.527Z,48.41
2022-07-26T00:47:54.642Z,48.93
2022-07-26T00:50:57.708Z,48.43
2022-07-26T00:54:00.755Z,48.28
2022-07-26T00:57:03.821Z,48.56
2022-07-26T01:00:10.062Z,48.41
2022-07-26T01:03:12.888Z,48.40
2022-07-26T01:06:16.004Z,48.51
2022-07-26T01:09:19.676Z,48.78
2022-07-26T01:12:22.641Z,48.74
2022-07-26T01:15:25.285Z,49.13
2022-07-26T01:18:28.272Z,48.77
2022-07-26T01:21:31.631Z,48.79
2022-07-26T01:24:34.681Z,48.75
2022-07-26T01:27:40.399Z,48.63
2022-07-26T01:30:43.381Z,49.46
2022-07-26T01:33:46.312Z,48.97
2022-07-26T01:36:49.412Z,49.26
2022-07-26T01:39:52.153Z,49.46
2022-07-26T01:42:55.256Z,49.32
2022-07-26T01:45:58.106Z,49.94
2022-07-26T01:49:01.881Z,49.72
2022-07-26T01:52:05.063Z,49.76
2022-07-26T01:55:08.889Z,50.27
2022-07-26T01:58:11.611Z,50.13
2022-07-26T02:01:14.670Z,50.01
2022-07-26T02:04:36.286Z,49.82
2022-07-26T02:07:44.449Z,50.18
2022-07-26T02:11:04.058Z,50.49
2022-07-26T02:14:07.049Z,50.41
2022-07-26T02:17:10.745Z,50.52
2022-07-26T02:20:16.961Z,50.63
2022-07-26T02:23:21.102Z,50.64
2022-07-26T02:26:23.767Z,50.97
2022-07-26T02:29:27.251Z,51.41
2022-07-26T02:32:29.808Z,51.51
2022-07-26T02:35:32.793Z,51.68
2022-07-26T02:38:35.331Z,51.99
2022-07-26T02:41:38.728Z,52.08
2022-07-26T02:44:41.866Z,52.63
2022-07-26T02:47:54.147Z,52.56
2022-07-26T02:50:56.764Z,52.69
2022-07-26T02:53:59.761Z,52.60
2022-07-26T02:57:02.456Z,52.89
2022-07-26T03:00:06.478Z,52.77
2022-07-26T03:03:14.116Z,52.59
2022-07-26T03:06:18.336Z,52.51
2022-07-26T03:09:21.002Z,52.71
2022-07-26T03:12:25.189Z,52.93
2022-07-26T03:15:27.845Z,52.78
2022-07-26T03:18:31.102Z,52.63
2022-07-26T03:21:33.763Z,52.43
2022-07-26T03:24:37.453Z,52.69
2022-07-26T03:27:40.266Z,52.67
2022-07-26T03:30:43.324Z,53.08
2022-07-26T03:33:46.068Z,52.90
2022-07-26T03:36:49.430Z,52.74
2022-07-26T03:39:52.228Z,52.91
2022-07-26T03:42:55.477Z,52.61
2022-07-26T03:45:58.105Z,52.62
2022-07-26T03:49:01.583Z,52.50
2022-07-26T03:52:04.367Z,52.56
2022-07-26T03:55:26.611Z,52.77
2022-07-26T03:58:29.583Z,52.20
2022-07-26T04:01:33.226Z,52.68
2022-07-26T04:04:36.179Z,52.79
2022-07-26T04:07:52.555Z,52.92
2022-07-26T04:10:56.497Z,52.64
2022-07-26T04:14:00.298Z,52.50
2022-07-26T04:17:03.303Z,52.54
2022-07-26T04:20:07.635Z,52.27
2022-07-26T04:23:12.305Z,52.34
2022-07-26T04:26:15.294Z,52.22
2022-07-26T04:29:18.184Z,52.07
2022-07-26T04:32:20.897Z,51.76
2022-07-26T04:35:24.169Z,51.89
2022-07-26T04:38:26.958Z,51.57
2022-07-26T04:41:30.858Z,51.16
2022-07-26T04:44:33.576Z,51.06
2022-07-26T04:47:36.744Z,50.76
2022-07-26T04:50:39.924Z,50.10
2022-07-26T04:53:42.827Z,50.09
2022-07-26T04:56:45.453Z,50.24
2022-07-26T05:00:03.347Z,50.28
2022-07-26T05:03:11.237Z,50.06
2022-07-26T05:06:14.455Z,49.51
2022-07-26T05:09:17.584Z,47.84
2022-07-26T05:12:20.471Z,47.25
2022-07-26T05:15:23.388Z,46.29
2022-07-26T05:18:27.195Z,46.03
2022-07-26T05:21:32.007Z,45.12
2022-07-26T05:24:34.935Z,44.23
2022-07-26T05:27:39.027Z,44.75
2022-07-26T05:30:42.042Z,44.27
2022-07-26T05:33:44.695Z,43.88
2022-07-26T05:36:47.684Z,42.77
2022-07-26T05:39:50.648Z,40.73
2022-07-26T05:42:53.732Z,40.00
2022-07-26T05:45:57.028Z,39.08
2022-07-26T05:49:00.083Z,38.75
2022-07-26T05:52:03.623Z,36.76
2022-07-26T05:55:07.385Z,35.39
2022-07-26T05:58:10.093Z,34.53
2022-07-26T06:01:13.145Z,34.30
2022-07-26T06:04:16.311Z,34.14
2022-07-26T06:07:19.056Z,33.78
2022-07-26T06:10:22.031Z,33.57
2022-07-26T06:13:24.659Z,33.40
2022-07-26T06:16:27.674Z,33.36
2022-07-26T06:19:31.083Z,33.10
2022-07-26T06:22:34.069Z,32.44
2022-07-26T06:25:36.883Z,32.67
2022-07-26T06:28:39.975Z,32.39
2022-07-26T06:31:42.699Z,32.26
2022-07-26T06:34:45.769Z,32.05
2022-07-26T06:37:48.459Z,32.20
2022-07-26T06:40:51.556Z,31.96
2022-07-26T06:43:54.222Z,31.64
2022-07-26T06:46:57.281Z,31.39
2022-07-26T06:49:59.941Z,31.22
2022-07-26T06:53:02.936Z,31.22
2022-07-26T06:56:06.052Z,30.96
2022-07-26T06:59:09.621Z,30.73
2022-07-26T07:02:12.447Z,30.86
2022-07-26T07:05:15.675Z,30.71
2022-07-26T07:08:18.723Z,30.27
2022-07-26T07:11:23.060Z,29.70
2022-07-26T07:14:25.765Z,29.30
2022-07-26T07:17:28.780Z,29.00
2022-07-26T07:20:31.603Z,29.03
2022-07-26T07:23:34.581Z,29.60
2022-07-26T07:26:37.301Z,28.86
2022-07-26T07:29:42.119Z,28.25
2022-07-26T07:32:46.085Z,28.27
2022-07-26T07:35:49.044Z,28.28
2022-07-26T07:38:51.997Z,28.62
2022-07-26T07:41:54.957Z,28.84
2022-07-26T07:44:57.598Z,28.53
2022-07-26T07:48:00.575Z,28.03
2022-07-26T07:51:03.244Z,28.01
2022-07-26T07:54:07.254Z,27.82
2022-07-26T07:57:11.230Z,27.94
2022-07-26T08:00:19.469Z,27.56
2022-07-26T08:03:38.929Z,27.49
2022-07-26T08:06:42.296Z,27.10
2022-07-26T08:09:53.292Z,27.38
2022-07-26T08:12:55.949Z,27.60
2022-07-26T08:15:59.306Z,27.60
2022-07-26T08:19:03.833Z,27.92
2022-07-26T08:22:08.356Z,27.41
2022-07-26T08:25:11.113Z,27.07
2022-07-26T08:28:37.533Z,26.46
2022-07-26T08:31:37.032Z,25.97
2022-07-26T08:34:40.009Z,26.69
2022-07-26T08:37:42.753Z,26.44
2022-07-26T08:40:45.772Z,25.07
2022-07-26T08:43:51.653Z,24.38
2022-07-26T08:46:55.586Z,23.83
2022-07-26T08:49:58.374Z,24.02
2022-07-26T08:53:04.169Z,24.01
2022-07-26T08:56:07.792Z,23.94
2022-07-26T08:59:20.541Z,24.28
2022-07-26T09:02:40.541Z,23.89
2022-07-26T09:05:43.455Z,23.31
2022-07-26T09:08:53.620Z,23.11
2022-07-26T09:11:57.708Z,22.54
2022-07-26T09:15:01.643Z,22.73
2022-07-26T09:18:06.011Z,22.50
2022-07-26T09:21:25.626Z,22.71
2022-07-26T09:24:35.759Z,22.76
2022-07-26T09:27:38.493Z,22.35
2022-07-26T09:30:52.579Z,22.48
2022-07-26T09:33:55.320Z,22.11
2022-07-26T09:36:58.270Z,22.34
2022-07-26T09:40:05.474Z,22.21
2022-07-26T09:43:09.957Z,21.83
2022-07-26T09:46:13.170Z,21.84
2022-07-26T09:49:21.661Z,21.75
2022-07-26T09:52:24.646Z,21.71
2022-07-26T09:55:35.045Z,21.58
2022-07-26T09:58:42.160Z,21.87
2022-07-26T10:01:45.893Z,22.41
2022-07-26T10:09:10.816Z,21.85
2022-07-26T10:12:16.668Z,22.28
2022-07-26T10:15:40.544Z,21.66
2022-07-26T10:18:44.997Z,21.76
2022-07-26T10:21:47.809Z,22.21
2022-07-26T10:24:57.561Z,21.83
2022-07-26T10:28:01.017Z,21.71
2022-07-26T10:31:25.966Z,21.95
2022-07-26T10:34:37.929Z,21.17
2022-07-26T10:47:04.431Z,22.12
2022-07-26T10:50:08.283Z,21.84
2022-07-26T10:53:19.402Z,22.40
2022-07-26T10:56:22.481Z,22.14
2022-07-26T10:59:55.006Z,21.72
2022-07-26T11:02:59.593Z,21.85
2022-07-26T11:06:12.631Z,21.69
2022-07-26T11:09:16.162Z,20.90
2022-07-26T11:12:20.226Z,20.82
2022-07-26T11:15:23.144Z,21.09
2022-07-26T11:18:30.768Z,20.83
2022-07-26T11:21:33.850Z,20.78
2022-07-26T11:24:40.976Z,20.84
2022-07-26T11:28:02.072Z,21.66
2022-07-26T11:31:04.864Z,21.15
2022-07-26T11:34:20.473Z,21.09
2022-07-26T11:37:23.170Z,22.08
2022-07-26T11:40:45.229Z,21.63
2022-07-26T11:43:49.111Z,22.02
2022-07-26T11:46:52.449Z,21.42
2022-07-26T11:53:22.718Z,21.78
2022-07-26T11:56:27.756Z,21.52
2022-07-26T11:59:34.372Z,22.31
2022-07-26T12:02:37.147Z,21.42
2022-07-26T12:05:42.090Z,21.11
2022-07-26T12:08:55.741Z,20.94
2022-07-26T12:11:59.772Z,20.77
2022-07-26T12:15:05.727Z,20.73
2022-07-26T12:18:10.666Z,21.06
2022-07-26T12:21:13.305Z,21.75
2022-07-26T12:24:36.216Z,21.66
2022-07-26T12:27:46.651Z,22.75
2022-07-26T12:30:49.669Z,21.98
2022-07-26T12:33:52.592Z,21.67
2022-07-26T12:36:55.656Z,21.25
2022-07-26T12:40:10.706Z,22.04
2022-07-26T12:47:43.033Z,21.61
2022-07-26T12:50:46.056Z,21.64
2022-07-26T12:53:48.772Z,21.67
2022-07-26T12:56:51.785Z,21.79
2022-07-26T13:04:24.819Z,23.29
2022-07-26T13:07:27.896Z,23.58
2022-07-26T13:10:33.671Z,24.14
2022-07-26T13:13:37.884Z,24.29
2022-07-26T13:16:40.611Z,26.36
2022-07-26T13:19:44.245Z,29.31
2022-07-26T13:22:46.915Z,30.49
2022-07-26T13:25:50.761Z,30.93
2022-07-26T13:28:53.522Z,30.87
2022-07-26T13:31:58.055Z,33.32
2022-07-26T13:35:00.686Z,33.96
2022-07-26T13:38:03.705Z,33.69
2022-07-26T13:41:06.479Z,34.32
2022-07-26T13:44:09.871Z,33.48
2022-07-26T13:47:14.480Z,35.56
2022-07-26T13:50:17.607Z,36.22
2022-07-26T13:53:20.289Z,37.18
2022-07-26T13:56:23.270Z,39.87
2022-07-26T13:59:26.258Z,40.30
2022-07-26T14:02:29.283Z,41.01
2022-07-26T14:05:32.250Z,43.37
2022-07-26T14:08:34.932Z,44.00
2022-07-26T14:11:39.006Z,44.46
2022-07-26T14:14:41.735Z,47.84
2022-07-26T14:17:47.958Z,47.28
2022-07-26T14:20:50.720Z,50.80
2022-07-26T14:23:55.857Z,50.74
2022-07-26T14:26:59.868Z,50.87
2022-07-26T14:30:05.809Z,49.41
2022-07-26T14:33:09.593Z,48.62
2022-07-26T14:36:13.763Z,49.19
2022-07-26T14:39:16.432Z,48.44
2022-07-26T14:42:19.429Z,48.07
2022-07-26T14:45:22.249Z,47.82
2022-07-26T14:48:51.904Z,47.55
2022-07-26T14:51:48.113Z,47.04
2022-07-26T14:54:51.773Z,47.19
2022-07-26T14:57:54.463Z,45.97
2022-07-26T15:00:57.975Z,44.96
2022-07-26T15:04:00.737Z,45.04
2022-07-26T15:07:04.054Z,45.78
2022-07-26T15:10:09.178Z,45.61
2022-07-26T15:13:13.753Z,47.26
2022-07-26T15:16:16.441Z,47.54
2022-07-26T15:19:23.713Z,48.10
2022-07-26T15:22:28.390Z,49.05
2022-07-26T15:25:31.374Z,49.83
2022-07-26T15:28:34.122Z,49.13
2022-07-26T15:31:37.941Z,50.39
2022-07-26T15:34:40.770Z,51.40
2022-07-26T15:37:44.207Z,50.96
2022-07-26T15:40:47.016Z,51.71
2022-07-26T15:43:49.984Z,51.09
2022-07-26T15:46:53.054Z,50.96
2022-07-26T15:49:56.045Z,51.00
2022-07-26T15:52:58.826Z,51.86
2022-07-26T15:56:02.884Z,51.55
2022-07-26T15:59:09.212Z,51.86
2022-07-26T16:02:12.251Z,51.72
2022-07-26T16:05:15.236Z,51.50
2022-07-26T16:08:17.913Z,50.55
2022-07-26T16:11:21.099Z,51.02
2022-07-26T16:14:23.847Z,50.79
2022-07-26T16:17:26.788Z,51.05
2022-07-26T16:20:29.557Z,50.67
2022-07-26T16:23:32.697Z,51.04
2022-07-26T16:26:36.397Z,52.00
2022-07-26T16:29:39.452Z,52.11
2022-07-26T16:32:42.833Z,51.68
2022-07-26T16:35:45.793Z,52.52
2022-07-26T16:38:48.461Z,53.53
2022-07-26T16:41:51.441Z,53.41
2022-07-26T16:44:54.259Z,53.03
2022-07-26T16:48:00.027Z,53.90
2022-07-26T16:51:03.107Z,55.04
2022-07-26T16:54:06.196Z,55.38
2022-07-26T16:57:08.943Z,55.11
2022-07-26T17:00:15.740Z,55.26
2022-07-26T17:03:19.450Z,55.04
2022-07-26T17:06:22.677Z,55.32
2022-07-26T17:09:25.313Z,56.14
2022-07-26T17:12:28.331Z,55.55
2022-07-26T17:15:30.973Z,56.22
2022-07-26T17:18:33.993Z,55.23
2022-07-26T17:21:36.631Z,54.62
2022-07-26T17:24:39.754Z,53.16
2022-07-26T17:27:42.558Z,52.55
2022-07-26T17:30:45.536Z,52.51
2022-07-26T17:33:48.289Z,52.32
2022-07-26T17:37:01.647Z,52.52
2022-07-26T17:40:09.116Z,52.60
2022-07-26T17:43:12.173Z,52.51
2022-07-26T17:46:15.601Z,52.26
2022-07-26T17:49:18.677Z,53.44
2022-07-26T17:52:21.380Z,52.69
2022-07-26T17:55:24.479Z,52.51
2022-07-26T17:58:27.211Z,53.48
2022-07-26T18:01:30.520Z,54.05
2022-07-26T18:04:33.541Z,54.52
2022-07-26T18:07:36.321Z,54.83
2022-07-26T18:10:39.350Z,55.21
2022-07-26T18:13:41.988Z,56.44
2022-07-26T18:16:48.302Z,56.92
2022-07-26T18:19:57.232Z,57.01
2022-07-26T18:23:00.216Z,58.71
2022-07-26T18:26:03.868Z,58.64
2022-07-26T18:29:07.063Z,58.57
2022-07-26T18:32:09.828Z,59.22
2022-07-26T18:35:12.803Z,58.45
2022-07-26T18:38:15.820Z,59.17
2022-07-26T18:41:19.017Z,58.63
2022-07-26T18:44:22.717Z,59.72
2022-07-26T18:47:25.783Z,59.08
2022-07-26T18:50:31.008Z,59.11
2022-07-26T18:53:35.320Z,60.13
2022-07-26T18:56:38.040Z,58.57
2022-07-26T18:59:41.362Z,59.80
2022-07-26T19:02:45.010Z,60.21
2022-07-26T19:05:48.213Z,59.10
2022-07-26T19:08:51.196Z,60.30
2022-07-26T19:11:54.184Z,60.26
2022-07-26T19:14:59.830Z,60.46
2022-07-26T19:18:11.172Z,61.61
2022-07-26T19:21:13.908Z,60.98
2022-07-26T19:24:16.914Z,61.14
2022-07-26T19:27:20.762Z,61.55
2022-07-26T19:30:24.990Z,62.44
2022-07-26T19:33:29.425Z,62.16
2022-07-26T19:36:32.417Z,62.42
2022-07-26T19:39:35.286Z,63.21
2022-07-26T19:42:38.499Z,62.14
2022-07-26T19:45:41.290Z,62.59
2022-07-26T19:48:44.498Z,64.02
2022-07-26T19:51:49.306Z,64.20
2022-07-26T19:54:52.360Z,64.63
2022-07-26T19:57:54.999Z,65.12
2022-07-26T20:00:58.188Z,64.05
2022-07-26T20:04:02.984Z,64.51
2022-07-26T20:07:05.760Z,64.42
2022-07-26T20:10:09.653Z,63.57
2022-07-26T20:13:13.798Z,65.05
2022-07-26T20:16:17.121Z,64.58
2022-07-26T20:19:19.814Z,63.74
2022-07-26T20:22:23.521Z,63.75
2022-07-26T20:25:26.329Z,65.06
2022-07-26T20:28:29.565Z,66.01
2022-07-26T20:31:32.200Z,64.68
2022-07-26T20:34:35.252Z,66.17
2022-07-26T20:37:38.020Z,66.73
2022-07-26T20:40:41.158Z,65.73
2022-07-26T20:43:45.277Z,66.79
2022-07-26T20:46:48.915Z,67.25
2022-07-26T20:49:51.614Z,67.73
2022-07-26T20:52:54.700Z,66.52
2022-07-26T20:55:57.453Z,65.76
2022-07-26T20:59:02.356Z,67.00
2022-07-26T21:02:05.169Z,66.67
2022-07-26T21:05:08.909Z,67.38
2022-07-26T21:08:11.808Z,68.65
2022-07-26T21:11:14.930Z,67.65
2022-07-26T21:14:17.546Z,68.21
2022-07-26T21:17:20.609Z,67.98
2022-07-26T21:20:35.557Z,68.45
2022-07-26T21:23:38.601Z,69.01
2022-07-26T21:26:42.249Z,68.11
2022-07-26T21:29:45.906Z,68.29
2022-07-26T21:32:48.602Z,69.30
2022-07-26T21:35:51.641Z,69.12
2022-07-26T21:38:54.314Z,68.88
2022-07-26T21:41:57.614Z,68.71
2022-07-26T21:45:00.211Z,67.48
2022-07-26T21:48:03.598Z,67.85
2022-07-26T21:51:06.269Z,68.61
2022-07-26T21:54:09.260Z,68.46
2022-07-26T21:57:11.921Z,68.88
2022-07-26T22:00:16.209Z,68.93
2022-07-26T22:03:19.111Z,67.55
2022-07-26T22:06:21.916Z,68.40
2022-07-26T22:09:24.883Z,67.19
2022-07-26T22:12:30.052Z,68.80
2022-07-26T22:15:34.202Z,69.30
2022-07-26T22:18:37.240Z,69.18
2022-07-26T22:21:40.407Z,70.07
2022-07-26T22:24:43.094Z,71.06
2022-07-26T22:27:46.018Z,70.75
2022-07-26T22:30:48.843Z,70.45
2022-07-26T22:33:51.818Z,71.50
2022-07-26T22:36:54.576Z,71.41
2022-07-26T22:39:57.564Z,71.76
2022-07-26T22:43:00.542Z,71.03
2022-07-26T22:46:03.888Z,70.54
2022-07-26T22:49:06.641Z,71.72
2022-07-26T22:52:15.297Z,70.98
2022-07-26T22:55:18.068Z,71.30
2022-07-26T22:58:21.230Z,71.52
2022-07-26T23:01:23.987Z,71.33
2022-07-26T23:04:27.074Z,72.13
2022-07-26T23:07:32.157Z,71.81
2022-07-26T23:10:35.481Z,73.20
2022-07-26T23:13:38.291Z,72.13
2022-07-26T23:16:41.318Z,72.64
2022-07-26T23:19:44.021Z,73.75
2022-07-26T23:22:47.117Z,71.86
2022-07-26T23:28:54.388Z,73.02
2022-07-26T23:31:57.354Z,73.02
2022-07-26T23:35:00.417Z,72.75
2022-07-26T23:38:03.092Z,73.61
2022-07-26T23:41:06.134Z,71.64
2022-07-26T23:44:08.873Z,72.50
2022-07-26T23:47:11.992Z,72.46
2022-07-26T23:50:15.451Z,73.20
2022-07-26T23:53:18.914Z,73.25
2022-07-26T23:56:29.531Z,73.76
2022-07-26T23:59:32.455Z,74.63
